Mussey Grade (971, 6917, MOR1) Station Data

Red Flag Warning: No
Fire Weather Zone: 250
SDGE Region: Ramona
Lat/Lon: 32.986/-116.908

Observations

Time Wind Speed/Gust Temp(F) RH Fuel Moist Fuel Temp(F) Dewpt(F) Tmax(F) Tmin(F) Accum Precip 10-min Precip SL Press(mb)
2/27 11:40pm 232 3 G 6 49° 94% - - 48° 52.2° 45.3° - - -
2/27 11:20pm 225 3 G 8 49° 94% - - 48° 52.2° 45.3° - - -
2/27 11:10pm 239 4 G 6 49° 94% - - 48° 52.2° 45.3° - - -
2/27 11:00pm 245 5 G 9 49° 94% - - 48° 52.2° 45.3° - - -
2/27 10:50pm 243 5 G 11 50° 94% - - 48° 52.2° 45.3° - - -
2/27 10:40pm 241 5 G 11 50° 94% - - 48° 52.2° 45.3° - - -
2/27 10:30pm 231 5 G 12 50° 94% - - 49° 52.2° 45.3° - - -
2/27 10:20pm 230 8 G 19 51° 94% - - 49° 52.2° 45.3° - - -
2/27 10:10pm 230 10 G 21 51° 94% - - 49° 52.2° 45.3° - - -
2/27 10:00pm 228 13 G 26 50° 94% - - 49° 52.2° 45.3° - - -
2/27 9:50pm 230 9 G 25 51° 94% - - 49° 52.2° 45.3° - - -
2/27 9:40pm 237 10 G 20 51° 94% - - 49° 52.2° 45.3° - - -
2/27 9:30pm 229 11 G 24 51° 94% - - 49° 52.2° 45.3° - - -
2/27 9:20pm 224 10 G 22 51° 94% - - 49° 52.2° 45.3° - - -
2/27 9:10pm 225 10 G 23 51° 94% - - 49° 52.2° 45.3° - - -
2/27 9:00pm 220 7 G 15 51° 94% - - 49° 52.2° 45.3° - - -
2/27 8:50pm 230 8 G 18 51° 94% - - 49° 52.2° 45.3° - - -
2/27 8:40pm 233 9 G 23 51° 94% - - 49° 52.2° 45.3° - - -
2/27 8:30pm 220 8 G 17 51° 94% - - 49° 52.2° 45.3° - - -
2/27 8:20pm 222 9 G 19 51° 94% - - 49° 52.2° 45.3° - - -
2/27 8:10pm 213 10 G 19 51° 94% - - 49° 52.2° 45.3° - - -
2/27 8:00pm 227 7 G 13 50° 94% - - 49° 52.2° 45.3° - - -
2/27 7:50pm 218 6 G 13 50° 94% - - 49° 52.2° 45.3° - - -
2/27 7:40pm 220 4 G 8 50° 94% - - 49° 52.2° 45.3° - - -
2/27 7:30pm 226 5 G 8 50° 94% - - 49° 52.2° 45.3° - - -
2/27 7:20pm 227 5 G 10 51° 94% - - 49° 52.2° 45.3° - - -
2/27 7:10pm 222 8 G 18 51° 94% - - 49° 52.2° 45.3° - - -
2/27 7:00pm 222 7 G 16 51° 94% - - 49° 52.2° 45.3° - - -
2/27 6:50pm 213 7 G 17 51° 94% - - 49° 52.2° 45.3° - - -
2/27 6:40pm 224 6 G 13 51° 94% - - 49° 52.2° 45.3° - - -
2/27 6:30pm 232 6 G 13 51° 94% - - 49° 52.2° 45.3° - - -
2/27 6:20pm 230 7 G 15 51° 94% - - 49° 52.2° 45.3° - - -
2/27 6:10pm 232 7 G 15 51° 94% - - 49° 52.2° 45.3° - - -
2/27 6:00pm 224 9 G 18 51° 94% - - 49° 52.2° 45.3° - - -
2/27 5:50pm 220 8 G 21 51° 94% - - 49° 52.2° 45.3° - - -
2/27 5:40pm 219 10 G 24 51° 94% - - 49° 52.2° 45.3° - - -
2/27 5:30pm 230 9 G 21 51° 94% - - 49° 52.2° 45.3° - - -
2/27 5:20pm 225 10 G 21 51° 94% - - 49° 52.2° 45.3° - - -
2/27 5:10pm 217 8 G 18 51° 94% - - 50° 52.2° 45.3° - - -
2/27 5:00pm 219 9 G 18 51° 94% - - 49° 52.2° 45.3° - - -
2/27 4:50pm 225 8 G 18 51° 94% - - 49° 52.2° 45.3° - - -
2/27 4:40pm 227 9 G 20 51° 94% - - 50° 52.2° 45.3° - - -
2/27 4:30pm 224 9 G 22 51° 94% - - 50° 52.2° 45.3° - - -
2/27 4:20pm 222 8 G 21 51° 94% - - 50° 52.2° 45.3° - - -
2/27 4:10pm 217 9 G 19 51° 94% - - 50° 52.2° 45.3° - - -
2/27 4:00pm 218 11 G 22 51° 94% - - 50° 52.2° 45.3° - - -
2/27 3:50pm 228 10 G 22 51° 94% - - 50° 52.2° 45.3° - - -
2/27 3:40pm 225 9 G 18 51° 94% - - 50° 52.2° 45.3° - - -
2/27 3:30pm 217 11 G 21 51° 94% - - 50° 52.2° 45.3° - - -
2/27 3:20pm 219 11 G 21 51° 94% - - 50° 52.2° 45.3° - - -
2/27 3:10pm 219 10 G 21 51° 94% - - 50° 52.2° 45.3° - - -
2/27 3:00pm 221 9 G 18 51° 94% - - 50° 52.2° 45.3° - - -
2/27 2:50pm 221 10 G 24 51° 94% - - 50° 52.2° 45.3° - - -
2/27 2:40pm 221 9 G 24 51° 94% - - 50° 52.2° 45.3° - - -
2/27 2:30pm 221 12 G 22 51° 94% - - 49° 52.2° 45.3° - - -
2/27 2:20pm 222 10 G 23 51° 94% - - 49° 52.2° 45.3° - - -
2/27 2:10pm 235 9 G 16 51° 94% - - 50° 52.2° 45.3° - - -
2/27 2:00pm 228 9 G 19 51° 94% - - 50° 52.2° 45.3° - - -
2/27 1:50pm 217 13 G 23 51° 94% - - 49° 52.2° 45.3° - - -
2/27 1:40pm 211 11 G 22 51° 94% - - 49° 52.2° 45.3° - - -
2/27 1:30pm 216 10 G 22 51° 94% - - 49° 52.2° 45.3° - - -
2/27 1:20pm 222 10 G 19 51° 94% - - 49° 52.2° 45.3° - - -
2/27 1:10pm 223 9 G 19 51° 94% - - 49° 52.2° 45.3° - - -
2/27 1:00pm 225 10 G 19 51° 94% - - 49° 52.2° 45.3° - - -
2/27 12:50pm 227 8 G 20 51° 94% - - 49° 52.2° 45.3° - - -
2/27 12:40pm 222 10 G 22 51° 94% - - 50° 52.2° 45.3° - - -
2/27 12:30pm 223 11 G 22 51° 94% - - 50° 52.2° 45.3° - - -
2/27 12:20pm 220 9 G 16 51° 94% - - 49° 52.2° 45.3° - - -
2/27 12:10pm 215 8 G 18 51° 94% - - 49° 52.2° 45.3° - - -
2/27 12:00pm 216 10 G 18 51° 94% - - 49° 52.2° 45.3° - - -
2/27 11:50am 213 9 G 20 51° 94% - - 49° 52.2° 45.3° - - -
2/27 11:40am 217 9 G 19 51° 94% - - 49° 52.2° 45.3° - - -
2/27 11:30am 221 10 G 19 51° 94% - - 49° 52.2° 45.3° - - -
2/27 11:20am 220 8 G 18 51° 94% - - 49° 52.2° 45.3° - - -
2/27 11:10am 233 8 G 17 51° 94% - - 49° 52.2° 45.3° - - -
2/27 11:00am 223 10 G 22 51° 94% - - 49° 52.2° 45.3° - - -
2/27 10:50am 219 10 G 20 51° 94% - - 49° 52.2° 45.3° - - -
2/27 10:40am 243 12 G 23 51° 94% - - 49° 52.2° 45.3° - - -
2/27 10:30am 231 10 G 25 52° 94% - - 50° 52.2° 45.3° - - -
2/27 10:20am 229 9 G 22 52° 94% - - 50° 52.2° 45.3° - - -
2/27 10:10am 228 9 G 22 52° 94% - - 50° 52.2° 45.3° - - -
2/27 10:00am 228 9 G 23 52° 94% - - 50° 52.2° 45.3° - - -
2/27 9:50am 228 8 G 17 52° 94% - - 50° 52.2° 45.3° - - -
2/27 9:40am 232 8 G 16 52° 94% - - 50° 52.2° 45.3° - - -
2/27 9:30am 232 6 G 17 52° 94% - - 50° 52.2° 45.3° - - -
2/27 9:20am 230 8 G 17 52° 94% - - 50° 52.2° 45.3° - - -
2/27 9:10am 219 8 G 20 52° 94% - - 50° 52.2° 45.3° - - -
2/27 9:00am 219 6 G 11 52° 94% - - 50° 52.2° 45.3° - - -
2/27 8:50am 220 5 G 9 52° 94% - - 50° 52.2° 45.3° - - -
2/27 8:40am 219 6 G 11 52° 94% - - 50° 52.2° 45.3° - - -
2/27 8:30am 223 6 G 11 52° 94% - - 50° 52.2° 45.3° - - -
2/27 8:20am 216 6 G 12 52° 94% - - 50° 52.2° 45.3° - - -
2/27 8:10am 218 6 G 12 52° 94% - - 50° 52.2° 45.3° - - -
2/27 8:00am 219 7 G 12 52° 94% - - 50° 52.2° 45.3° - - -
2/27 7:50am 223 6 G 14 52° 94% - - 50° 52.2° 45.3° - - -
2/27 7:40am 227 8 G 18 52° 94% - - 50° 52.2° 45.3° - - -
2/27 7:30am 222 7 G 14 52° 94% - - 50° 52.2° 45.3° - - -
2/27 7:20am 221 8 G 17 52° 94% - - 50° 52.2° 45.3° - - -
2/27 7:10am 225 8 G 17 52° 94% - - 50° 52.2° 45.3° - - -
2/27 7:00am 223 8 G 16 52° 94% - - 50° 52.2° 45.3° - - -
2/27 6:50am 226 8 G 16 52° 94% - - 50° 52.1° 45.3° - - -
2/27 6:40am 223 7 G 16 52° 94% - - 50° 51.9° 45.3° - - -
2/27 6:30am 224 8 G 14 52° 94% - - 50° 51.8° 45.3° - - -
2/27 6:20am 226 7 G 15 51° 94% - - 50° 51.7° 45.3° - - -
2/27 6:10am 224 6 G 13 51° 94% - - 49° 51.5° 45.3° - - -
2/27 6:00am 224 5 G 11 51° 94% - - 49° 51.3° 45.3° - - -
2/27 5:50am 224 6 G 11 51° 94% - - 49° 51.2° 45.3° - - -
2/27 5:40am 226 6 G 10 51° 94% - - 49° 51.2° 45.3° - - -
2/27 5:30am 227 7 G 16 51° 93% - - 49° 51° 45.3° - - -
2/27 5:20am 226 7 G 12 50° 93% - - 49° 50.7° 45.3° - - -
2/27 5:10am 233 5 G 11 50° 93% - - 48° 50.3° 45.3° - - -
2/27 5:00am 226 6 G 11 50° 93% - - 48° 50.1° 45.3° - - -
2/27 4:50am 230 5 G 9 50° 93% - - 48° 49.7° 45.3° - - -
2/27 4:40am 211 5 G 10 49° 93% - - 47° 49.6° 45.3° - - -
2/27 4:30am 336 1 G 5 47° 93% - - 45° 48.3° 45.3° - - -
2/27 4:20am 252 1 G 4 47° 93% - - 45° 48.3° 45.3° - - -
2/27 4:10am 75 2 G 4 48° 93% - - 46° 48.3° 45.3° - - -
2/27 4:00am 82 3 G 5 47° 93% - - 45° 47.4° 45.3° - - -
2/27 3:50am 78 3 G 5 47° 93% - - 45° 46.9° 45.3° - - -
2/27 3:40am 76 3 G 5 47° 93% - - 44° 46.8° 45.3° - - -
2/27 3:30am 75 4 G 6 46° 92% - - 44° 46.6° 45.3° - - -
2/27 3:20am 76 4 G 6 46° 92% - - 44° 46.6° 45.3° - - -
2/27 3:10am 77 4 G 5 46° 92% - - 44° 46.5° 45.3° - - -
2/27 3:00am 80 2 G 4 46° 92% - - 44° 46.5° 45.3° - - -
2/27 2:50am 70 3 G 4 46° 92% - - 44° 46.3° 45.3° - - -
2/27 2:40am 64 4 G 5 46° 92% - - 44° 46.3° 45.3° - - -
2/27 2:30am 59 3 G 5 46° 92% - - 44° 46.3° 45.3° - - -
2/27 2:20am 62 3 G 6 46° 92% - - 44° 46.2° 45.3° - - -
2/27 2:10am 58 4 G 6 46° 92% - - 44° 46.2° 45.3° - - -
2/27 2:00am 57 3 G 5 46° 92% - - 44° 46.1° 45.3° - - -
2/27 1:50am 67 3 G 5 46° 92% - - 44° 46.1° 45.3° - - -
2/27 1:40am 58 3 G 5 46° 92% - - 44° 46.1° 45.3° - - -
2/27 1:30am 62 3 G 4 46° 91% - - 43° 46.1° 45.3° - - -
2/27 1:20am 64 2 G 4 46° 91% - - 43° 46° 45.3° - - -
2/27 1:10am 56 3 G 5 46° 91% - - 43° 46° 45.3° - - -
2/27 1:00am 61 3 G 5 46° 91% - - 43° 46° 45.3° - - -
2/27 12:50am 61 3 G 4 46° 91% - - 43° 46° 45.3° - - -
2/27 12:40am 52 3 G 5 46° 90% - - 43° 46° 45.3° - - -
2/27 12:30am 50 2 G 4 46° 90% - - 43° 45.9° 45.3° - - -
2/27 12:20am 59 3 G 4 45° 89% - - 43° 45.8° 45.3° - - -
2/27 12:10am 60 3 G 5 46° 89% - - 43° 45.8° 45.4° - - -
2/27 12:00am 62 3 G 5 46° 88% - - 43° 52.2° 43.2° - - -
2/26 11:50pm 56 3 G 5 46° 88% - - 42° 52.2° 43.2° - - -
2/26 11:40pm 56 3 G 4 46° 87% - - 42° 52.2° 43.2° - - -
2/26 11:30pm 65 3 G 4 46° 87% - - 42° 52.2° 43.2° - - -
2/26 11:20pm 57 2 G 4 46° 87% - - 42° 52.2° 43.2° - - -
2/26 11:10pm 61 3 G 4 45° 88% - - 42° 52.2° 43.2° - - -
2/26 11:00pm 58 2 G 3 45° 88% - - 42° 52.2° 43.2° - - -
2/26 10:50pm 56 2 G 3 45° 88% - - 41° 52.2° 43.2° - - -
2/26 10:40pm 53 0 G 2 45° 87% - - 41° 52.2° 43.2° - - -
2/26 10:30pm 63 2 G 2 45° 87% - - 41° 52.2° 43.2° - - -
2/26 10:20pm 55 2 G 3 45° 87% - - 41° 52.2° 43.2° - - -
2/26 10:10pm 59 2 G 3 45° 87% - - 41° 52.2° 43.2° - - -
2/26 10:00pm 55 3 G 4 45° 87% - - 41° 52.2° 43.2° - - -
2/26 9:50pm 59 2 G 4 44° 88% - - 41° 52.2° 43.2° - - -
2/26 9:40pm 60 3 G 4 43° 88% - - 40° 52.2° 43.2° - - -
2/26 9:30pm 59 2 G 3 43° 87% - - 40° 52.2° 43.2° - - -
2/26 9:20pm 63 2 G 4 43° 87% - - 40° 52.2° 43.2° - - -
2/26 9:10pm 63 2 G 3 44° 86% - - 40° 52.2° 43.3° - - -
2/26 9:00pm 60 1 G 2 44° 85% - - 40° 52.2° 43.7° - - -
2/26 8:50pm 78 0 G 0 45° 85% - - 41° 52.2° 43.8° - - -
2/26 8:40pm 227 1 G 2 45° 84% - - 41° 52.2° 43.8° - - -
2/26 8:30pm 231 2 G 5 46° 84% - - 41° 52.2° 43.8° - - -
2/26 8:20pm 240 3 G 6 46° 84% - - 41° 52.2° 43.8° - - -
2/26 8:10pm 235 4 G 8 46° 83% - - 41° 52.2° 43.8° - - -
2/26 8:00pm 237 5 G 12 47° 84% - - 42° 52.2° 43.8° - - -
2/26 7:50pm 231 6 G 11 47° 85% - - 43° 52.2° 43.8° - - -
2/26 7:40pm 233 5 G 9 47° 86% - - 43° 52.2° 43.8° - - -
2/26 7:30pm 236 5 G 9 47° 87% - - 44° 52.2° 43.8° - - -
2/26 7:20pm 243 6 G 10 48° 87% - - 44° 52.2° 43.8° - - -
2/26 7:10pm 236 4 G 8 48° 86% - - 44° 52.2° 43.8° - - -
2/26 7:00pm 240 4 G 10 48° 85% - - 44° 52.2° 43.8° - - -
2/26 6:50pm 232 4 G 9 48° 84% - - 43° 52.2° 43.8° - - -
2/26 6:40pm 240 6 G 11 48° 83% - - 43° 52.2° 43.8° - - -
2/26 6:30pm 225 6 G 11 48° 83% - - 43° 52.2° 43.8° - - -
2/26 6:20pm 236 4 G 10 48° 84% - - 43° 52.2° 43.8° - - -
2/26 6:10pm 248 6 G 10 48° 82% - - 43° 52.2° 43.8° - - -
2/26 6:00pm 245 6 G 13 48° 80% - - 42° 52.2° 43.8° - - -
2/26 5:50pm 239 4 G 8 48° 80% - - 42° 52.2° 43.8° - - -
2/26 5:40pm 241 5 G 10 48° 79% - - 42° 52.2° 43.8° - - -
2/26 5:30pm 242 5 G 10 48° 79% - - 42° 52.2° 43.8° - - -
2/26 5:20pm 236 6 G 11 49° 77% - - 42° 52.2° 43.8° - - -
2/26 5:10pm 237 6 G 10 49° 75% - - 42° 52.2° 43.8° - - -
2/26 5:00pm 228 7 G 15 50° 71% - - 41° 52.2° 43.8° - - -